sensor_id;sensor_type;location;lat;lon;timestamp;P1;durP1;ratioP1;P2;durP2;ratioP2
12681;SDS011;6405;59.208;18.216;2023-07-13T00:01:46;8.37;;;4.23;;
12681;SDS011;6405;59.208;18.216;2023-07-13T00:04:14;4.47;;;3.40;;
12681;SDS011;6405;59.208;18.216;2023-07-13T00:06:42;5.03;;;3.83;;
12681;SDS011;6405;59.208;18.216;2023-07-13T00:09:09;4.17;;;3.77;;
12681;SDS011;6405;59.208;18.216;2023-07-13T00:11:37;7.30;;;4.40;;
12681;SDS011;6405;59.208;18.216;2023-07-13T00:14:07;4.00;;;3.60;;
12681;SDS011;6405;59.208;18.216;2023-07-13T00:16:35;14.77;;;4.67;;
12681;SDS011;6405;59.208;18.216;2023-07-13T00:19:03;4.57;;;4.17;;
12681;SDS011;6405;59.208;18.216;2023-07-13T00:21:30;5.13;;;3.80;;
12681;SDS011;6405;59.208;18.216;2023-07-13T00:23:56;4.40;;;3.87;;
12681;SDS011;6405;59.208;18.216;2023-07-13T00:26:22;4.53;;;4.13;;
12681;SDS011;6405;59.208;18.216;2023-07-13T00:28:48;4.43;;;4.03;;
12681;SDS011;6405;59.208;18.216;2023-07-13T00:31:14;4.70;;;4.00;;
12681;SDS011;6405;59.208;18.216;2023-07-13T00:33:40;4.40;;;4.00;;
12681;SDS011;6405;59.208;18.216;2023-07-13T00:36:07;4.50;;;4.00;;
12681;SDS011;6405;59.208;18.216;2023-07-13T00:38:34;6.20;;;4.10;;
12681;SDS011;6405;59.208;18.216;2023-07-13T00:40:59;4.40;;;4.00;;
12681;SDS011;6405;59.208;18.216;2023-07-13T00:43:26;4.70;;;4.30;;
12681;SDS011;6405;59.208;18.216;2023-07-13T00:48:37;5.00;;;4.33;;
12681;SDS011;6405;59.208;18.216;2023-07-13T00:51:04;5.33;;;4.83;;
12681;SDS011;6405;59.208;18.216;2023-07-13T00:53:29;6.90;;;5.40;;
12681;SDS011;6405;59.208;18.216;2023-07-13T00:55:58;6.33;;;4.97;;
12681;SDS011;6405;59.208;18.216;2023-07-13T00:58:25;4.80;;;4.33;;
12681;SDS011;6405;59.208;18.216;2023-07-13T01:00:53;6.23;;;4.33;;
12681;SDS011;6405;59.208;18.216;2023-07-13T01:03:19;5.23;;;4.10;;
12681;SDS011;6405;59.208;18.216;2023-07-13T01:05:47;4.80;;;3.83;;
12681;SDS011;6405;59.208;18.216;2023-07-13T01:08:14;5.20;;;4.70;;
12681;SDS011;6405;59.208;18.216;2023-07-13T01:10:40;4.70;;;4.27;;
12681;SDS011;6405;59.208;18.216;2023-07-13T01:13:06;5.00;;;4.50;;
12681;SDS011;6405;59.208;18.216;2023-07-13T01:15:34;6.10;;;4.43;;
12681;SDS011;6405;59.208;18.216;2023-07-13T01:18:05;6.73;;;4.27;;
12681;SDS011;6405;59.208;18.216;2023-07-13T01:20:34;5.73;;;4.57;;
12681;SDS011;6405;59.208;18.216;2023-07-13T01:23:10;7.97;;;5.17;;
12681;SDS011;6405;59.208;18.216;2023-07-13T01:25:38;5.67;;;4.67;;
12681;SDS011;6405;59.208;18.216;2023-07-13T01:28:04;6.67;;;4.57;;
12681;SDS011;6405;59.208;18.216;2023-07-13T01:30:31;6.00;;;4.60;;
12681;SDS011;6405;59.208;18.216;2023-07-13T01:32:58;5.47;;;4.73;;
12681;SDS011;6405;59.208;18.216;2023-07-13T01:35:24;6.07;;;4.63;;
12681;SDS011;6405;59.208;18.216;2023-07-13T01:37:52;8.30;;;5.23;;
12681;SDS011;6405;59.208;18.216;2023-07-13T01:40:18;6.27;;;4.10;;
12681;SDS011;6405;59.208;18.216;2023-07-13T01:42:45;4.57;;;4.00;;
12681;SDS011;6405;59.208;18.216;2023-07-13T01:45:10;7.70;;;3.87;;
12681;SDS011;6405;59.208;18.216;2023-07-13T01:47:36;5.37;;;3.93;;
12681;SDS011;6405;59.208;18.216;2023-07-13T01:50:02;5.37;;;3.53;;
12681;SDS011;6405;59.208;18.216;2023-07-13T01:52:28;6.20;;;4.17;;
12681;SDS011;6405;59.208;18.216;2023-07-13T01:54:54;4.40;;;4.00;;
12681;SDS011;6405;59.208;18.216;2023-07-13T01:57:21;11.93;;;4.37;;
12681;SDS011;6405;59.208;18.216;2023-07-13T01:59:46;5.00;;;3.97;;
12681;SDS011;6405;59.208;18.216;2023-07-13T02:02:12;4.30;;;3.90;;
12681;SDS011;6405;59.208;18.216;2023-07-13T02:04:38;4.30;;;3.90;;
12681;SDS011;6405;59.208;18.216;2023-07-13T02:07:03;4.03;;;3.33;;
12681;SDS011;6405;59.208;18.216;2023-07-13T02:09:30;6.17;;;4.23;;
12681;SDS011;6405;59.208;18.216;2023-07-13T02:11:56;6.20;;;3.83;;
12681;SDS011;6405;59.208;18.216;2023-07-13T02:14:22;5.67;;;3.77;;
12681;SDS011;6405;59.208;18.216;2023-07-13T02:16:48;6.00;;;4.20;;
12681;SDS011;6405;59.208;18.216;2023-07-13T02:19:13;4.13;;;3.70;;
12681;SDS011;6405;59.208;18.216;2023-07-13T02:21:39;6.33;;;3.90;;
12681;SDS011;6405;59.208;18.216;2023-07-13T02:24:05;3.87;;;3.57;;
12681;SDS011;6405;59.208;18.216;2023-07-13T02:26:32;4.83;;;3.63;;
12681;SDS011;6405;59.208;18.216;2023-07-13T02:28:58;3.50;;;3.20;;
12681;SDS011;6405;59.208;18.216;2023-07-13T02:31:23;4.03;;;3.27;;
12681;SDS011;6405;59.208;18.216;2023-07-13T02:33:49;5.53;;;4.23;;
12681;SDS011;6405;59.208;18.216;2023-07-13T02:36:15;5.80;;;4.13;;
12681;SDS011;6405;59.208;18.216;2023-07-13T02:38:41;4.33;;;3.93;;
12681;SDS011;6405;59.208;18.216;2023-07-13T02:41:07;3.77;;;3.30;;
12681;SDS011;6405;59.208;18.216;2023-07-13T02:43:35;3.97;;;3.57;;
12681;SDS011;6405;59.208;18.216;2023-07-13T02:46:03;5.03;;;3.80;;
12681;SDS011;6405;59.208;18.216;2023-07-13T02:48:36;4.23;;;3.27;;
12681;SDS011;6405;59.208;18.216;2023-07-13T02:51:03;4.60;;;4.10;;
12681;SDS011;6405;59.208;18.216;2023-07-13T02:53:29;4.33;;;3.87;;
12681;SDS011;6405;59.208;18.216;2023-07-13T02:55:55;3.67;;;3.37;;
12681;SDS011;6405;59.208;18.216;2023-07-13T02:58:21;7.80;;;3.50;;
12681;SDS011;6405;59.208;18.216;2023-07-13T03:00:47;5.17;;;3.83;;
12681;SDS011;6405;59.208;18.216;2023-07-13T03:03:19;5.67;;;3.90;;
12681;SDS011;6405;59.208;18.216;2023-07-13T03:05:46;5.43;;;4.40;;
12681;SDS011;6405;59.208;18.216;2023-07-13T03:08:15;4.97;;;4.17;;
12681;SDS011;6405;59.208;18.216;2023-07-13T03:10:43;7.53;;;4.00;;
12681;SDS011;6405;59.208;18.216;2023-07-13T03:13:09;5.87;;;4.20;;
12681;SDS011;6405;59.208;18.216;2023-07-13T03:15:34;4.37;;;3.97;;
12681;SDS011;6405;59.208;18.216;2023-07-13T03:18:00;5.53;;;4.87;;
12681;SDS011;6405;59.208;18.216;2023-07-13T03:20:26;5.13;;;4.20;;
12681;SDS011;6405;59.208;18.216;2023-07-13T03:22:51;6.77;;;4.57;;
12681;SDS011;6405;59.208;18.216;2023-07-13T03:25:17;4.20;;;3.80;;
12681;SDS011;6405;59.208;18.216;2023-07-13T03:27:43;5.20;;;4.30;;
12681;SDS011;6405;59.208;18.216;2023-07-13T03:30:09;5.00;;;3.70;;
12681;SDS011;6405;59.208;18.216;2023-07-13T03:32:35;5.40;;;4.30;;
12681;SDS011;6405;59.208;18.216;2023-07-13T03:35:00;4.73;;;3.67;;
12681;SDS011;6405;59.208;18.216;2023-07-13T03:37:26;4.90;;;3.90;;
12681;SDS011;6405;59.208;18.216;2023-07-13T03:39:52;5.10;;;4.17;;
12681;SDS011;6405;59.208;18.216;2023-07-13T03:42:18;5.23;;;3.83;;
12681;SDS011;6405;59.208;18.216;2023-07-13T03:44:44;4.40;;;4.00;;
12681;SDS011;6405;59.208;18.216;2023-07-13T03:47:15;5.20;;;4.30;;
12681;SDS011;6405;59.208;18.216;2023-07-13T03:49:41;5.67;;;3.73;;
12681;SDS011;6405;59.208;18.216;2023-07-13T03:52:07;5.13;;;4.47;;
12681;SDS011;6405;59.208;18.216;2023-07-13T03:54:33;4.67;;;4.00;;
12681;SDS011;6405;59.208;18.216;2023-07-13T03:56:58;4.97;;;4.47;;
12681;SDS011;6405;59.208;18.216;2023-07-13T03:59:24;6.33;;;4.47;;
12681;SDS011;6405;59.208;18.216;2023-07-13T04:01:50;5.90;;;4.20;;
12681;SDS011;6405;59.208;18.216;2023-07-13T04:04:15;7.50;;;5.30;;
12681;SDS011;6405;59.208;18.216;2023-07-13T04:06:41;6.97;;;4.80;;
12681;SDS011;6405;59.208;18.216;2023-07-13T04:09:07;9.23;;;5.33;;
12681;SDS011;6405;59.208;18.216;2023-07-13T04:11:33;4.83;;;4.30;;
12681;SDS011;6405;59.208;18.216;2023-07-13T04:14:01;7.87;;;5.20;;
12681;SDS011;6405;59.208;18.216;2023-07-13T04:16:27;6.67;;;5.27;;
12681;SDS011;6405;59.208;18.216;2023-07-13T04:18:54;7.83;;;6.43;;
12681;SDS011;6405;59.208;18.216;2023-07-13T04:21:26;8.83;;;6.20;;
12681;SDS011;6405;59.208;18.216;2023-07-13T04:23:53;9.67;;;7.30;;
12681;SDS011;6405;59.208;18.216;2023-07-13T04:26:19;10.23;;;7.10;;
12681;SDS011;6405;59.208;18.216;2023-07-13T04:28:46;11.70;;;7.50;;
12681;SDS011;6405;59.208;18.216;2023-07-13T04:31:12;9.70;;;6.50;;
12681;SDS011;6405;59.208;18.216;2023-07-13T04:33:38;6.53;;;5.57;;
12681;SDS011;6405;59.208;18.216;2023-07-13T04:36:04;10.27;;;5.47;;
12681;SDS011;6405;59.208;18.216;2023-07-13T04:38:31;7.93;;;5.63;;
12681;SDS011;6405;59.208;18.216;2023-07-13T04:41:01;8.93;;;5.30;;
12681;SDS011;6405;59.208;18.216;2023-07-13T04:43:30;7.97;;;5.50;;
12681;SDS011;6405;59.208;18.216;2023-07-13T04:45:57;7.10;;;4.60;;
12681;SDS011;6405;59.208;18.216;2023-07-13T04:48:27;6.63;;;4.60;;
12681;SDS011;6405;59.208;18.216;2023-07-13T04:50:56;8.00;;;4.60;;
12681;SDS011;6405;59.208;18.216;2023-07-13T04:53:23;6.13;;;4.70;;
12681;SDS011;6405;59.208;18.216;2023-07-13T04:55:49;10.80;;;4.17;;
12681;SDS011;6405;59.208;18.216;2023-07-13T04:58:15;7.03;;;3.60;;
12681;SDS011;6405;59.208;18.216;2023-07-13T05:00:42;5.27;;;3.20;;
12681;SDS011;6405;59.208;18.216;2023-07-13T05:03:08;5.47;;;3.67;;
12681;SDS011;6405;59.208;18.216;2023-07-13T05:05:34;5.47;;;3.83;;
12681;SDS011;6405;59.208;18.216;2023-07-13T05:07:59;7.70;;;4.10;;
12681;SDS011;6405;59.208;18.216;2023-07-13T05:10:25;4.63;;;4.03;;
12681;SDS011;6405;59.208;18.216;2023-07-13T05:12:51;5.80;;;3.67;;
12681;SDS011;6405;59.208;18.216;2023-07-13T05:15:17;7.43;;;3.97;;
12681;SDS011;6405;59.208;18.216;2023-07-13T05:17:49;5.17;;;3.53;;
12681;SDS011;6405;59.208;18.216;2023-07-13T05:20:17;4.67;;;3.70;;
12681;SDS011;6405;59.208;18.216;2023-07-13T05:22:43;5.63;;;3.50;;
12681;SDS011;6405;59.208;18.216;2023-07-13T05:25:12;5.47;;;3.60;;
12681;SDS011;6405;59.208;18.216;2023-07-13T05:27:38;5.93;;;3.27;;
12681;SDS011;6405;59.208;18.216;2023-07-13T05:30:05;4.47;;;3.17;;
12681;SDS011;6405;59.208;18.216;2023-07-13T05:32:31;5.87;;;3.67;;
12681;SDS011;6405;59.208;18.216;2023-07-13T05:34:57;4.93;;;3.23;;
12681;SDS011;6405;59.208;18.216;2023-07-13T05:37:23;4.37;;;3.30;;
12681;SDS011;6405;59.208;18.216;2023-07-13T05:39:49;4.63;;;2.77;;
12681;SDS011;6405;59.208;18.216;2023-07-13T05:42:15;3.40;;;3.10;;
12681;SDS011;6405;59.208;18.216;2023-07-13T05:44:40;4.43;;;3.23;;
12681;SDS011;6405;59.208;18.216;2023-07-13T05:47:07;6.37;;;2.93;;
12681;SDS011;6405;59.208;18.216;2023-07-13T05:49:33;4.40;;;3.27;;
12681;SDS011;6405;59.208;18.216;2023-07-13T05:51:59;8.80;;;3.30;;
12681;SDS011;6405;59.208;18.216;2023-07-13T05:54:24;4.63;;;2.83;;
12681;SDS011;6405;59.208;18.216;2023-07-13T05:56:50;6.37;;;2.57;;
12681;SDS011;6405;59.208;18.216;2023-07-13T05:59:17;2.90;;;2.60;;
12681;SDS011;6405;59.208;18.216;2023-07-13T06:01:43;4.87;;;2.53;;
12681;SDS011;6405;59.208;18.216;2023-07-13T06:04:09;5.77;;;3.00;;
12681;SDS011;6405;59.208;18.216;2023-07-13T06:06:35;7.87;;;3.00;;
12681;SDS011;6405;59.208;18.216;2023-07-13T06:09:00;5.07;;;3.00;;
12681;SDS011;6405;59.208;18.216;2023-07-13T06:11:26;8.23;;;3.37;;
12681;SDS011;6405;59.208;18.216;2023-07-13T06:13:54;4.83;;;2.93;;
12681;SDS011;6405;59.208;18.216;2023-07-13T06:16:21;4.80;;;3.10;;
12681;SDS011;6405;59.208;18.216;2023-07-13T06:18:47;4.00;;;2.50;;
12681;SDS011;6405;59.208;18.216;2023-07-13T06:21:15;6.40;;;3.37;;
12681;SDS011;6405;59.208;18.216;2023-07-13T06:23:44;4.10;;;2.40;;
12681;SDS011;6405;59.208;18.216;2023-07-13T06:26:12;5.13;;;2.80;;
12681;SDS011;6405;59.208;18.216;2023-07-13T06:28:38;4.90;;;2.50;;
12681;SDS011;6405;59.208;18.216;2023-07-13T06:31:06;4.00;;;2.20;;
12681;SDS011;6405;59.208;18.216;2023-07-13T06:33:32;4.03;;;2.40;;
12681;SDS011;6405;59.208;18.216;2023-07-13T06:35:58;6.43;;;3.13;;
12681;SDS011;6405;59.208;18.216;2023-07-13T06:38:24;3.03;;;2.17;;
12681;SDS011;6405;59.208;18.216;2023-07-13T06:40:50;3.33;;;2.23;;
12681;SDS011;6405;59.208;18.216;2023-07-13T06:43:16;6.93;;;2.40;;
12681;SDS011;6405;59.208;18.216;2023-07-13T06:45:44;2.77;;;1.93;;
12681;SDS011;6405;59.208;18.216;2023-07-13T06:48:12;2.70;;;2.20;;
12681;SDS011;6405;59.208;18.216;2023-07-13T06:50:39;4.03;;;2.20;;
12681;SDS011;6405;59.208;18.216;2023-07-13T06:53:06;4.07;;;2.33;;
12681;SDS011;6405;59.208;18.216;2023-07-13T06:55:31;2.57;;;2.37;;
12681;SDS011;6405;59.208;18.216;2023-07-13T06:57:57;3.37;;;2.30;;
12681;SDS011;6405;59.208;18.216;2023-07-13T07:00:23;5.23;;;2.30;;
12681;SDS011;6405;59.208;18.216;2023-07-13T07:02:49;3.47;;;2.20;;
12681;SDS011;6405;59.208;18.216;2023-07-13T07:05:14;7.53;;;2.33;;
12681;SDS011;6405;59.208;18.216;2023-07-13T07:07:41;5.20;;;2.13;;
12681;SDS011;6405;59.208;18.216;2023-07-13T07:10:07;7.30;;;2.40;;
12681;SDS011;6405;59.208;18.216;2023-07-13T07:12:33;3.47;;;1.90;;
12681;SDS011;6405;59.208;18.216;2023-07-13T07:14:59;3.73;;;2.30;;
12681;SDS011;6405;59.208;18.216;2023-07-13T07:17:25;3.07;;;1.97;;
12681;SDS011;6405;59.208;18.216;2023-07-13T07:19:51;2.73;;;2.10;;
12681;SDS011;6405;59.208;18.216;2023-07-13T07:22:19;5.33;;;2.07;;
12681;SDS011;6405;59.208;18.216;2023-07-13T07:24:45;5.93;;;2.33;;
12681;SDS011;6405;59.208;18.216;2023-07-13T07:27:11;3.57;;;2.03;;
12681;SDS011;6405;59.208;18.216;2023-07-13T07:29:37;4.27;;;2.00;;
12681;SDS011;6405;59.208;18.216;2023-07-13T07:32:03;2.00;;;1.63;;
12681;SDS011;6405;59.208;18.216;2023-07-13T07:34:30;4.47;;;1.93;;
12681;SDS011;6405;59.208;18.216;2023-07-13T07:36:58;4.53;;;1.77;;
12681;SDS011;6405;59.208;18.216;2023-07-13T07:39:27;6.10;;;2.50;;
12681;SDS011;6405;59.208;18.216;2023-07-13T07:41:53;5.50;;;2.13;;
12681;SDS011;6405;59.208;18.216;2023-07-13T07:44:19;3.93;;;2.00;;
12681;SDS011;6405;59.208;18.216;2023-07-13T07:46:44;3.53;;;1.80;;
12681;SDS011;6405;59.208;18.216;2023-07-13T07:49:10;4.60;;;2.60;;
12681;SDS011;6405;59.208;18.216;2023-07-13T07:51:36;4.30;;;1.97;;
12681;SDS011;6405;59.208;18.216;2023-07-13T07:54:03;2.70;;;1.90;;
12681;SDS011;6405;59.208;18.216;2023-07-13T07:56:29;6.37;;;1.80;;
12681;SDS011;6405;59.208;18.216;2023-07-13T07:58:56;4.70;;;1.80;;
12681;SDS011;6405;59.208;18.216;2023-07-13T08:01:21;5.23;;;1.90;;
12681;SDS011;6405;59.208;18.216;2023-07-13T08:03:47;4.33;;;2.00;;
12681;SDS011;6405;59.208;18.216;2023-07-13T08:06:13;5.60;;;2.00;;
12681;SDS011;6405;59.208;18.216;2023-07-13T08:08:39;4.00;;;2.20;;
12681;SDS011;6405;59.208;18.216;2023-07-13T08:11:06;5.40;;;2.00;;
12681;SDS011;6405;59.208;18.216;2023-07-13T08:13:33;1.90;;;1.40;;
12681;SDS011;6405;59.208;18.216;2023-07-13T08:15:59;3.60;;;1.67;;
12681;SDS011;6405;59.208;18.216;2023-07-13T08:18:25;3.10;;;1.70;;
12681;SDS011;6405;59.208;18.216;2023-07-13T08:20:53;3.27;;;1.70;;
12681;SDS011;6405;59.208;18.216;2023-07-13T08:23:21;2.13;;;1.50;;
12681;SDS011;6405;59.208;18.216;2023-07-13T08:25:50;3.93;;;1.53;;
12681;SDS011;6405;59.208;18.216;2023-07-13T08:28:17;4.73;;;1.67;;
12681;SDS011;6405;59.208;18.216;2023-07-13T08:30:44;6.20;;;1.60;;
12681;SDS011;6405;59.208;18.216;2023-07-13T08:33:17;4.40;;;1.40;;
12681;SDS011;6405;59.208;18.216;2023-07-13T08:35:47;3.03;;;1.30;;
12681;SDS011;6405;59.208;18.216;2023-07-13T08:38:14;3.10;;;1.30;;
12681;SDS011;6405;59.208;18.216;2023-07-13T08:40:40;3.57;;;1.37;;
12681;SDS011;6405;59.208;18.216;2023-07-13T08:43:09;2.47;;;1.40;;
12681;SDS011;6405;59.208;18.216;2023-07-13T08:45:47;3.60;;;1.47;;
12681;SDS011;6405;59.208;18.216;2023-07-13T08:48:28;2.70;;;1.33;;
12681;SDS011;6405;59.208;18.216;2023-07-13T08:51:00;3.10;;;1.20;;
12681;SDS011;6405;59.208;18.216;2023-07-13T08:53:52;3.80;;;1.40;;
12681;SDS011;6405;59.208;18.216;2023-07-13T08:56:23;2.63;;;1.23;;
12681;SDS011;6405;59.208;18.216;2023-07-13T08:59:00;2.63;;;1.10;;
12681;SDS011;6405;59.208;18.216;2023-07-13T09:01:51;3.53;;;1.23;;
12681;SDS011;6405;59.208;18.216;2023-07-13T09:04:41;4.07;;;1.20;;
12681;SDS011;6405;59.208;18.216;2023-07-13T09:07:19;2.07;;;1.30;;
12681;SDS011;6405;59.208;18.216;2023-07-13T09:15:51;4.47;;;1.30;;
12681;SDS011;6405;59.208;18.216;2023-07-13T09:18:13;3.63;;;1.37;;
12681;SDS011;6405;59.208;18.216;2023-07-13T09:20:48;2.93;;;1.10;;
12681;SDS011;6405;59.208;18.216;2023-07-13T09:23:19;3.20;;;1.77;;
12681;SDS011;6405;59.208;18.216;2023-07-13T09:25:48;2.37;;;1.17;;
12681;SDS011;6405;59.208;18.216;2023-07-13T09:28:22;9.83;;;1.57;;
12681;SDS011;6405;59.208;18.216;2023-07-13T09:31:07;2.43;;;1.23;;
12681;SDS011;6405;59.208;18.216;2023-07-13T09:33:53;2.37;;;1.07;;
12681;SDS011;6405;59.208;18.216;2023-07-13T09:36:25;3.00;;;1.30;;
12681;SDS011;6405;59.208;18.216;2023-07-13T09:38:59;3.37;;;1.07;;
12681;SDS011;6405;59.208;18.216;2023-07-13T09:44:16;2.83;;;0.90;;
12681;SDS011;6405;59.208;18.216;2023-07-13T09:46:52;3.30;;;1.10;;
12681;SDS011;6405;59.208;18.216;2023-07-13T09:49:22;3.80;;;1.10;;
12681;SDS011;6405;59.208;18.216;2023-07-13T09:51:59;1.50;;;0.90;;
12681;SDS011;6405;59.208;18.216;2023-07-13T09:54:32;2.47;;;1.20;;
12681;SDS011;6405;59.208;18.216;2023-07-13T09:56:59;4.30;;;1.30;;
12681;SDS011;6405;59.208;18.216;2023-07-13T09:59:32;2.80;;;1.20;;
12681;SDS011;6405;59.208;18.216;2023-07-13T10:01:59;1.50;;;0.77;;
12681;SDS011;6405;59.208;18.216;2023-07-13T10:04:31;2.20;;;1.10;;
12681;SDS011;6405;59.208;18.216;2023-07-13T10:07:08;3.03;;;1.10;;
12681;SDS011;6405;59.208;18.216;2023-07-13T10:09:38;2.80;;;1.13;;
12681;SDS011;6405;59.208;18.216;2023-07-13T10:12:04;4.80;;;1.17;;
12681;SDS011;6405;59.208;18.216;2023-07-13T10:14:39;3.20;;;1.20;;
12681;SDS011;6405;59.208;18.216;2023-07-13T10:17:08;3.70;;;1.27;;
12681;SDS011;6405;59.208;18.216;2023-07-13T10:19:39;1.97;;;1.13;;
12681;SDS011;6405;59.208;18.216;2023-07-13T10:22:44;3.63;;;0.87;;
12681;SDS011;6405;59.208;18.216;2023-07-13T10:25:17;2.10;;;1.03;;
12681;SDS011;6405;59.208;18.216;2023-07-13T10:27:47;2.37;;;1.03;;
12681;SDS011;6405;59.208;18.216;2023-07-13T10:32:45;3.70;;;1.20;;
12681;SDS011;6405;59.208;18.216;2023-07-13T10:35:13;2.40;;;1.00;;
12681;SDS011;6405;59.208;18.216;2023-07-13T10:37:54;1.97;;;0.80;;
12681;SDS011;6405;59.208;18.216;2023-07-13T10:40:39;2.80;;;1.00;;
12681;SDS011;6405;59.208;18.216;2023-07-13T10:43:26;2.60;;;1.20;;
12681;SDS011;6405;59.208;18.216;2023-07-13T10:46:03;3.10;;;1.23;;
12681;SDS011;6405;59.208;18.216;2023-07-13T10:48:34;1.40;;;0.93;;
12681;SDS011;6405;59.208;18.216;2023-07-13T10:51:02;1.47;;;1.00;;
12681;SDS011;6405;59.208;18.216;2023-07-13T10:53:33;2.10;;;1.10;;
12681;SDS011;6405;59.208;18.216;2023-07-13T10:56:01;2.63;;;1.23;;
12681;SDS011;6405;59.208;18.216;2023-07-13T10:58:35;2.07;;;0.97;;
12681;SDS011;6405;59.208;18.216;2023-07-13T11:01:04;1.73;;;1.00;;
12681;SDS011;6405;59.208;18.216;2023-07-13T11:03:35;3.70;;;1.10;;
12681;SDS011;6405;59.208;18.216;2023-07-13T11:06:13;1.33;;;0.93;;
12681;SDS011;6405;59.208;18.216;2023-07-13T11:14:02;2.97;;;0.83;;
12681;SDS011;6405;59.208;18.216;2023-07-13T11:16:36;1.80;;;0.90;;
12681;SDS011;6405;59.208;18.216;2023-07-13T11:19:24;2.57;;;0.80;;
12681;SDS011;6405;59.208;18.216;2023-07-13T11:30:22;2.50;;;1.07;;
12681;SDS011;6405;59.208;18.216;2023-07-13T11:38:39;4.30;;;1.00;;
12681;SDS011;6405;59.208;18.216;2023-07-13T11:41:14;2.13;;;0.80;;
12681;SDS011;6405;59.208;18.216;2023-07-13T11:43:48;2.00;;;1.27;;
12681;SDS011;6405;59.208;18.216;2023-07-13T11:46:25;2.70;;;1.10;;
12681;SDS011;6405;59.208;18.216;2023-07-13T11:48:53;2.97;;;1.10;;
12681;SDS011;6405;59.208;18.216;2023-07-13T11:51:23;2.70;;;0.93;;
12681;SDS011;6405;59.208;18.216;2023-07-13T11:53:56;1.60;;;0.80;;
12681;SDS011;6405;59.208;18.216;2023-07-13T11:56:26;2.87;;;0.97;;
12681;SDS011;6405;59.208;18.216;2023-07-13T11:58:54;0.90;;;0.80;;
12681;SDS011;6405;59.208;18.216;2023-07-13T12:01:23;1.57;;;0.90;;
12681;SDS011;6405;59.208;18.216;2023-07-13T12:03:51;2.37;;;0.90;;
12681;SDS011;6405;59.208;18.216;2023-07-13T12:06:23;3.13;;;1.17;;
12681;SDS011;6405;59.208;18.216;2023-07-13T12:08:55;1.30;;;0.90;;
12681;SDS011;6405;59.208;18.216;2023-07-13T12:11:22;2.67;;;1.00;;
12681;SDS011;6405;59.208;18.216;2023-07-13T12:13:47;2.30;;;1.17;;
12681;SDS011;6405;59.208;18.216;2023-07-13T12:16:15;1.93;;;0.93;;
12681;SDS011;6405;59.208;18.216;2023-07-13T12:19:02;1.57;;;1.10;;
12681;SDS011;6405;59.208;18.216;2023-07-13T12:21:36;2.90;;;1.63;;
12681;SDS011;6405;59.208;18.216;2023-07-13T12:24:04;2.30;;;0.90;;
12681;SDS011;6405;59.208;18.216;2023-07-13T12:26:30;2.93;;;0.90;;
12681;SDS011;6405;59.208;18.216;2023-07-13T12:28:58;2.57;;;1.23;;
12681;SDS011;6405;59.208;18.216;2023-07-13T12:31:37;2.30;;;1.00;;
12681;SDS011;6405;59.208;18.216;2023-07-13T12:36:49;1.67;;;0.90;;
12681;SDS011;6405;59.208;18.216;2023-07-13T12:39:18;1.57;;;0.93;;
12681;SDS011;6405;59.208;18.216;2023-07-13T12:41:49;3.10;;;1.10;;
12681;SDS011;6405;59.208;18.216;2023-07-13T12:44:27;2.77;;;1.40;;
12681;SDS011;6405;59.208;18.216;2023-07-13T12:46:59;2.30;;;0.90;;
12681;SDS011;6405;59.208;18.216;2023-07-13T12:49:39;1.33;;;0.80;;
12681;SDS011;6405;59.208;18.216;2023-07-13T12:52:15;4.10;;;1.13;;
12681;SDS011;6405;59.208;18.216;2023-07-13T12:54:52;3.57;;;1.27;;
12681;SDS011;6405;59.208;18.216;2023-07-13T12:57:22;3.43;;;1.27;;
12681;SDS011;6405;59.208;18.216;2023-07-13T12:59:51;2.57;;;1.20;;
12681;SDS011;6405;59.208;18.216;2023-07-13T13:02:22;1.93;;;1.10;;
12681;SDS011;6405;59.208;18.216;2023-07-13T13:04:57;4.87;;;1.40;;
12681;SDS011;6405;59.208;18.216;2023-07-13T13:07:24;1.90;;;1.10;;
12681;SDS011;6405;59.208;18.216;2023-07-13T13:09:50;4.10;;;1.00;;
12681;SDS011;6405;59.208;18.216;2023-07-13T13:12:18;2.93;;;1.23;;
12681;SDS011;6405;59.208;18.216;2023-07-13T13:14:45;3.87;;;1.60;;
12681;SDS011;6405;59.208;18.216;2023-07-13T13:17:29;3.80;;;1.10;;
12681;SDS011;6405;59.208;18.216;2023-07-13T13:19:56;2.07;;;1.20;;
12681;SDS011;6405;59.208;18.216;2023-07-13T13:22:22;3.40;;;1.30;;
12681;SDS011;6405;59.208;18.216;2023-07-13T13:24:49;3.40;;;1.10;;
12681;SDS011;6405;59.208;18.216;2023-07-13T13:27:19;2.60;;;1.10;;
12681;SDS011;6405;59.208;18.216;2023-07-13T13:29:49;3.30;;;1.07;;
12681;SDS011;6405;59.208;18.216;2023-07-13T13:32:19;1.30;;;0.90;;
12681;SDS011;6405;59.208;18.216;2023-07-13T13:34:44;2.43;;;1.00;;
12681;SDS011;6405;59.208;18.216;2023-07-13T13:37:20;4.13;;;1.20;;
12681;SDS011;6405;59.208;18.216;2023-07-13T13:39:47;2.73;;;1.30;;
12681;SDS011;6405;59.208;18.216;2023-07-13T13:42:13;1.73;;;1.10;;
12681;SDS011;6405;59.208;18.216;2023-07-13T13:44:40;3.30;;;1.20;;
12681;SDS011;6405;59.208;18.216;2023-07-13T13:47:25;2.50;;;1.20;;
12681;SDS011;6405;59.208;18.216;2023-07-13T13:49:53;3.40;;;1.77;;
12681;SDS011;6405;59.208;18.216;2023-07-13T13:52:19;3.17;;;1.40;;
12681;SDS011;6405;59.208;18.216;2023-07-13T13:54:44;3.80;;;1.60;;
12681;SDS011;6405;59.208;18.216;2023-07-13T13:57:10;1.70;;;1.13;;
12681;SDS011;6405;59.208;18.216;2023-07-13T13:59:37;2.80;;;1.37;;
12681;SDS011;6405;59.208;18.216;2023-07-13T14:02:20;3.70;;;1.60;;
12681;SDS011;6405;59.208;18.216;2023-07-13T14:04:50;2.53;;;1.13;;
12681;SDS011;6405;59.208;18.216;2023-07-13T14:07:19;4.57;;;1.63;;
12681;SDS011;6405;59.208;18.216;2023-07-13T14:09:45;2.93;;;1.60;;
12681;SDS011;6405;59.208;18.216;2023-07-13T14:12:10;2.10;;;1.40;;
12681;SDS011;6405;59.208;18.216;2023-07-13T14:14:39;5.73;;;2.00;;
12681;SDS011;6405;59.208;18.216;2023-07-13T14:17:11;3.57;;;1.60;;
12681;SDS011;6405;59.208;18.216;2023-07-13T14:19:50;2.57;;;1.60;;
12681;SDS011;6405;59.208;18.216;2023-07-13T14:22:21;2.63;;;1.47;;
12681;SDS011;6405;59.208;18.216;2023-07-13T14:24:48;3.00;;;1.47;;
12681;SDS011;6405;59.208;18.216;2023-07-13T14:27:14;2.83;;;1.40;;
12681;SDS011;6405;59.208;18.216;2023-07-13T14:29:40;2.40;;;1.40;;
12681;SDS011;6405;59.208;18.216;2023-07-13T14:32:10;3.67;;;1.40;;
12681;SDS011;6405;59.208;18.216;2023-07-13T14:34:37;2.03;;;1.50;;
12681;SDS011;6405;59.208;18.216;2023-07-13T14:37:03;2.33;;;1.67;;
12681;SDS011;6405;59.208;18.216;2023-07-13T14:39:30;2.30;;;1.50;;
12681;SDS011;6405;59.208;18.216;2023-07-13T14:41:57;4.10;;;1.83;;
12681;SDS011;6405;59.208;18.216;2023-07-13T14:44:28;2.77;;;1.63;;
12681;SDS011;6405;59.208;18.216;2023-07-13T14:46:55;1.93;;;1.40;;
12681;SDS011;6405;59.208;18.216;2023-07-13T14:49:42;3.20;;;1.80;;
12681;SDS011;6405;59.208;18.216;2023-07-13T14:52:11;2.70;;;1.63;;
12681;SDS011;6405;59.208;18.216;2023-07-13T14:54:40;2.13;;;1.47;;
12681;SDS011;6405;59.208;18.216;2023-07-13T14:57:09;1.60;;;1.37;;
12681;SDS011;6405;59.208;18.216;2023-07-13T14:59:38;4.93;;;1.80;;
12681;SDS011;6405;59.208;18.216;2023-07-13T15:02:11;2.30;;;1.60;;
12681;SDS011;6405;59.208;18.216;2023-07-13T15:04:42;2.87;;;1.67;;
12681;SDS011;6405;59.208;18.216;2023-07-13T15:07:09;3.97;;;1.83;;
12681;SDS011;6405;59.208;18.216;2023-07-13T15:09:36;3.67;;;1.70;;
12681;SDS011;6405;59.208;18.216;2023-07-13T15:12:02;4.60;;;1.50;;
12681;SDS011;6405;59.208;18.216;2023-07-13T15:14:28;2.90;;;1.80;;
12681;SDS011;6405;59.208;18.216;2023-07-13T15:16:55;3.43;;;1.73;;
12681;SDS011;6405;59.208;18.216;2023-07-13T15:19:21;2.57;;;1.20;;
12681;SDS011;6405;59.208;18.216;2023-07-13T15:21:49;2.60;;;1.37;;
12681;SDS011;6405;59.208;18.216;2023-07-13T15:24:17;3.80;;;1.60;;
12681;SDS011;6405;59.208;18.216;2023-07-13T15:26:43;3.00;;;1.57;;
12681;SDS011;6405;59.208;18.216;2023-07-13T15:29:10;3.77;;;1.50;;
12681;SDS011;6405;59.208;18.216;2023-07-13T15:31:37;1.77;;;1.40;;
12681;SDS011;6405;59.208;18.216;2023-07-13T15:34:07;5.40;;;1.50;;